Time;durP1;ratioP1;P1;durP2;ratioP2;P2;SDS_P1;SDS_P2;PMS_P1;PMS_P2;Temp;Humidity;BMP_temperature;BMP_pressure;BME280_temperature;BME280_humidity;BME280_pressure;Samples;Min_cycle;Max_cycle;Signal;HPM_P1;HPM_P2
2024/02/03 00:01:09;;;;;;;12.77;3.33;;;;;;;6.45;60.67;101963.41;5026463;28;20097;-69
2024/02/03 00:03:41;;;;;;;8.13;2.50;;;;;;;6.21;61.17;101955.69;5027328;28;21964;-72
2024/02/03 00:06:06;;;;;;;8.90;3.03;;;;;;;6.41;60.74;101959.09;5048641;28;20209;-71
2024/02/03 00:08:39;;;;;;;4.90;1.98;;;;;;;6.77;59.87;101962.34;5048953;28;20282;-72
2024/02/03 00:11:10;;;;;;;7.95;1.88;;;;;;;6.40;60.82;101962.56;5069661;28;20406;-73
2024/02/03 00:13:43;;;;;;;6.70;1.92;;;;;;;6.32;60.91;101953.94;5057901;28;20059;-72
2024/02/03 00:16:18;;;;;;;7.18;2.13;;;;;;;6.64;60.26;101950.31;5066078;28;20044;-70
2024/02/03 00:18:43;;;;;;;8.70;2.35;;;;;;;6.16;61.37;101941.88;5050596;28;20122;-72
2024/02/03 00:21:10;;;;;;;5.82;2.33;;;;;;;6.18;61.54;101938.41;5038826;28;20044;-72
2024/02/03 00:23:36;;;;;;;3.65;1.95;;;;;;;6.64;59.69;101942.50;5021296;28;20028;-72
2024/02/03 00:26:04;;;;;;;9.85;2.03;;;;;;;6.49;60.13;101954.72;5040201;28;20383;-72
2024/02/03 00:28:35;;;;;;;5.95;2.47;;;;;;;6.78;59.48;101958.88;5036586;28;20032;-71
2024/02/03 00:31:09;;;;;;;8.50;2.50;;;;;;;6.55;59.93;101969.44;5046263;28;20066;-71
2024/02/03 00:33:34;;;;;;;10.75;2.35;;;;;;;6.32;60.38;101964.34;5039287;28;20040;-71
2024/02/03 00:36:00;;;;;;;6.43;1.95;;;;;;;6.14;61.17;101959.19;5043039;28;20032;-71
2024/02/03 00:38:29;;;;;;;10.32;2.13;;;;;;;6.41;60.69;101959.09;5041286;28;20060;-71
2024/02/03 00:40:55;;;;;;;8.77;1.70;;;;;;;6.53;60.18;101957.31;4995441;28;20496;-69
2024/02/03 00:43:23;;;;;;;9.13;1.75;;;;;;;6.58;59.84;101950.38;4999234;28;20218;-70
2024/02/03 00:45:49;;;;;;;6.93;2.08;;;;;;;6.20;60.84;101954.84;4996979;28;20044;-69
2024/02/03 00:48:28;;;;;;;9.90;1.75;;;;;;;6.65;60.01;101936.47;5001037;28;20202;-71
2024/02/03 00:50:57;;;;;;;5.70;2.15;;;;;;;6.29;61.05;101943.59;4986641;28;20062;-70
2024/02/03 00:53:22;;;;;;;2.67;1.25;;;;;;;6.61;60.39;101942.53;5032111;28;20035;-70
2024/02/03 00:55:48;;;;;;;7.65;2.58;;;;;;;6.77;59.75;101948.50;5062069;28;20044;-70
2024/02/03 00:58:13;;;;;;;8.50;1.63;;;;;;;6.59;59.96;101959.88;5065416;28;20718;-70
2024/02/03 01:00:41;;;;;;;5.43;1.73;;;;;;;6.68;59.46;101959.81;5032728;28;20050;-69
2024/02/03 01:03:07;;;;;;;10.32;2.05;;;;;;;6.11;61.70;101959.22;5048955;28;20177;-72
2024/02/03 01:05:33;;;;;;;6.80;1.67;;;;;;;6.40;60.83;101965.16;5058317;28;20051;-68
2024/02/03 01:07:58;;;;;;;9.80;1.67;;;;;;;6.32;60.88;101948.75;5066507;28;20036;-73
2024/02/03 01:10:26;;;;;;;8.05;1.50;;;;;;;6.61;59.95;101961.59;5061428;28;20047;-70
2024/02/03 01:13:01;;;;;;;4.00;1.20;;;;;;;6.37;60.65;101952.19;5062874;28;20501;-71
2024/02/03 01:15:27;;;;;;;11.48;2.08;;;;;;;6.34;60.56;101960.00;5053303;28;20490;-71
2024/02/03 01:17:54;;;;;;;10.77;1.50;;;;;;;6.55;60.46;101955.56;5062826;28;20060;-72
2024/02/03 01:20:24;;;;;;;5.97;1.45;;;;;;;6.77;59.73;101966.69;5061875;28;20086;-74
2024/02/03 01:22:52;;;;;;;8.88;2.72;;;;;;;6.15;61.46;101951.41;5064917;28;20113;-72
2024/02/03 01:25:20;;;;;;;6.68;1.85;;;;;;;6.48;60.28;101963.41;5047397;28;20048;-73
2024/02/03 01:27:46;;;;;;;8.88;2.10;;;;;;;6.74;59.55;101962.38;5059154;28;20040;-72
2024/02/03 01:30:11;;;;;;;11.85;1.30;;;;;;;6.53;60.66;101959.91;5064981;28;20082;-71
2024/02/03 01:32:37;;;;;;;7.88;1.25;;;;;;;6.41;60.53;101964.28;5057622;28;20418;-71
2024/02/03 01:35:05;;;;;;;7.38;1.70;;;;;;;6.55;59.82;101955.56;5048245;28;20082;-71
2024/02/03 01:37:32;;;;;;;10.73;1.70;;;;;;;7.06;58.62;101948.28;5060329;28;20135;-72
2024/02/03 01:39:58;;;;;;;3.75;2.13;;;;;;;6.76;59.58;101950.25;5061942;28;20723;-72
2024/02/03 01:42:26;;;;;;;10.73;1.67;;;;;;;6.55;60.04;101950.34;5055772;28;20465;-71
2024/02/03 01:44:53;;;;;;;7.82;1.15;;;;;;;6.26;60.62;101965.22;5063134;28;22256;-72
2024/02/03 01:47:25;;;;;;;12.80;1.88;;;;;;;6.66;59.83;101953.75;5064795;28;20093;-72
2024/02/03 01:49:54;;;;;;;4.18;0.82;;;;;;;6.41;60.42;101948.69;5013456;28;20192;-71
2024/02/03 01:52:24;;;;;;;5.50;1.00;;;;;;;6.28;60.45;101952.22;5023754;28;20534;-72
2024/02/03 01:55:01;;;;;;;8.35;1.63;;;;;;;6.08;61.12;101949.69;5015732;28;20237;-72
2024/02/03 01:57:33;;;;;;;10.63;1.17;;;;;;;6.46;60.17;101959.06;5028972;28;20209;-71
2024/02/03 02:00:06;;;;;;;;;;;;;;;6.17;61.22;101956.59;5031331;28;20067;-72
2024/02/03 02:02:34;;;;;;;8.52;1.88;;;;;;;6.06;61.48;101941.94;5058459;28;19919;-71
2024/02/03 02:05:24;;;;;;;5.65;1.73;;;;;;;6.45;60.08;101941.78;5063765;28;20100;-75
2024/02/03 02:07:52;;;;;;;6.63;1.63;;;;;;;5.91;61.98;101962.75;5059044;28;20035;-74
2024/02/03 02:10:20;;;;;;;5.75;2.65;;;;;;;6.17;61.20;101949.69;5065864;28;20036;-72
2024/02/03 02:12:46;;;;;;;7.43;1.33;;;;;;;6.14;60.59;101948.81;5038949;28;20125;-72
2024/02/03 02:15:18;;;;;;;11.27;1.35;;;;;;;6.42;60.18;101945.25;5055145;28;20131;-72
2024/02/03 02:17:56;;;;;;;7.60;1.52;;;;;;;6.30;60.66;101950.50;5042417;28;20514;-70
2024/02/03 02:20:21;;;;;;;8.40;1.60;;;;;;;6.13;61.01;101953.16;5047618;28;20130;-71
2024/02/03 02:22:50;;;;;;;6.32;1.65;;;;;;;6.20;60.73;101966.97;5057001;28;20118;-70
2024/02/03 02:25:22;;;;;;;11.23;1.43;;;;;;;6.39;60.17;101958.22;5058081;28;20040;-71
2024/02/03 02:28:05;;;;;;;8.82;1.00;;;;;;;6.25;61.26;101947.03;5033353;28;20125;-71
2024/02/03 02:30:33;;;;;;;10.65;1.55;;;;;;;5.75;62.54;101929.91;5043081;28;20108;-70
2024/02/03 02:33:00;;;;;;;3.20;1.25;;;;;;;6.13;61.08;101940.16;5060669;28;20055;-71
2024/02/03 02:35:28;;;;;;;10.07;1.30;;;;;;;6.42;60.63;101950.44;5048661;28;20606;-70
2024/02/03 02:37:56;;;;;;;8.73;1.40;;;;;;;6.09;61.24;101954.03;5034608;28;20586;-71
2024/02/03 02:40:22;;;;;;;4.85;1.23;;;;;;;6.09;61.24;101936.72;5050024;28;20036;-71
2024/02/03 02:42:59;;;;;;;6.13;1.50;;;;;;;5.91;61.93;101946.31;5057936;28;20271;-71
2024/02/03 02:45:25;;;;;;;7.75;1.00;;;;;;;6.21;60.99;101938.38;5080511;28;20032;-70
2024/02/03 02:47:52;;;;;;;7.95;1.60;;;;;;;6.26;60.76;101943.56;5042483;28;20036;-70
2024/02/03 02:50:19;;;;;;;3.40;0.80;;;;;;;6.13;61.20;101940.16;5055527;28;20032;-70
2024/02/03 02:52:52;;;;;;;7.95;1.80;;;;;;;6.20;61.39;101922.84;5055213;28;20040;-71
2024/02/03 02:55:20;;;;;;;7.82;1.35;;;;;;;6.28;60.91;101939.25;5063596;28;20070;-70
2024/02/03 02:57:45;;;;;;;6.57;1.60;;;;;;;6.34;60.59;101931.44;5038360;28;20028;-70
2024/02/03 03:00:11;;;;;;;7.32;1.45;;;;;;;6.53;60.18;101936.53;5042141;28;20185;-65
2024/02/03 03:02:37;;;;;;;9.07;1.70;;;;;;;6.36;60.73;101929.69;5046782;28;20047;-64
2024/02/03 03:05:07;;;;;;;6.63;1.70;;;;;;;6.56;60.33;101931.31;5062797;28;20093;-65
2024/02/03 03:07:35;;;;;;;9.70;1.60;;;;;;;6.21;61.38;101929.75;5062014;28;20038;-65
2024/02/03 03:10:01;;;;;;;13.40;3.35;;;;;;;6.42;60.86;101934.88;5048850;28;20109;-65
2024/02/03 03:12:27;;;;;;;10.52;1.73;;;;;;;6.20;61.53;101943.59;5042395;28;20729;-65
2024/02/03 03:14:52;;;;;;;9.15;1.70;;;;;;;6.35;60.80;101933.19;5034997;28;20064;-68
2024/02/03 03:17:18;;;;;;;6.68;1.85;;;;;;;6.25;61.09;101941.84;5057096;28;20052;-67
2024/02/03 03:19:48;;;;;;;8.52;1.55;;;;;;;6.50;60.33;101947.78;5041930;28;20040;-68
2024/02/03 03:22:18;;;;;;;7.22;1.77;;;;;;;6.28;61.66;101941.84;5037012;28;20039;-68
2024/02/03 03:24:43;;;;;;;7.65;1.30;;;;;;;6.13;61.91;101949.66;5031173;28;20121;-69
2024/02/03 03:27:09;;;;;;;8.52;1.58;;;;;;;6.04;61.92;101937.63;5043991;28;20123;-68
2024/02/03 03:29:39;;;;;;;8.02;1.20;;;;;;;6.39;60.88;101944.41;5044245;28;20101;-70
2024/02/03 03:32:12;;;;;;;5.50;1.27;;;;;;;6.33;60.95;101934.91;5019316;28;20071;-71
2024/02/03 03:34:43;;;;;;;12.63;1.33;;;;;;;6.69;60.09;101941.63;5033213;28;20593;-71
2024/02/03 03:37:19;;;;;;;5.00;1.38;;;;;;;6.38;60.68;101935.75;5029073;28;20042;-65
2024/02/03 03:39:51;;;;;;;6.85;0.95;;;;;;;6.43;60.96;101921.00;5046461;28;20036;-70
2024/02/03 03:42:19;;;;;;;13.07;1.23;;;;;;;6.23;61.63;101933.19;5027502;28;20031;-70
2024/02/03 03:44:48;;;;;;;5.82;1.10;;;;;;;6.07;61.96;101930.66;5042200;28;20067;-71
2024/02/03 03:47:14;;;;;;;5.18;1.30;;;;;;;6.11;62.00;101939.31;5062088;28;20024;-69
2024/02/03 03:49:42;;;;;;;10.18;1.23;;;;;;;6.66;60.21;101949.44;5056478;28;20410;-69
2024/02/03 03:52:08;;;;;;;8.55;1.02;;;;;;;6.27;61.33;101942.69;5066364;28;20059;-68
2024/02/03 03:54:33;;;;;;;6.78;1.25;;;;;;;6.18;61.56;101950.53;5055855;28;20120;-71
2024/02/03 03:57:01;;;;;;;12.02;1.83;;;;;;;6.36;61.29;101955.66;5039791;28;20036;-70
2024/02/03 03:59:27;;;;;;;7.90;1.30;;;;;;;6.49;60.66;101972.06;5065271;28;20038;-71
2024/02/03 04:01:57;;;;;;;10.73;1.73;;;;;;;6.67;60.13;101971.94;5053023;28;20036;-68
2024/02/03 04:04:23;;;;;;;9.10;1.45;;;;;;;6.50;60.76;101979.81;5055300;28;20471;-71
2024/02/03 04:06:50;;;;;;;5.88;1.27;;;;;;;6.00;61.59;101980.88;5049431;28;20043;-70
2024/02/03 04:09:16;;;;;;;15.07;1.92;;;;;;;6.16;61.71;101962.66;5049717;28;20491;-70
2024/02/03 04:11:42;;;;;;;5.78;1.45;;;;;;;6.22;61.69;101966.09;5055226;28;20184;-70
2024/02/03 04:14:10;;;;;;;13.40;2.00;;;;;;;6.05;61.50;101976.53;5059849;28;20089;-70
2024/02/03 04:16:38;;;;;;;3.28;1.30;;;;;;;6.33;61.11;101981.66;5065689;28;20040;-68
2024/02/03 04:19:09;;;;;;;7.88;1.13;;;;;;;6.30;61.15;101986.84;5057268;28;20029;-70
2024/02/03 04:21:37;;;;;;;8.25;1.20;;;;;;;5.95;62.36;101984.34;5026005;28;20032;-70
2024/02/03 04:24:03;;;;;;;8.63;0.80;;;;;;;5.99;62.01;101973.09;5015714;28;21871;-69
2024/02/03 04:26:28;;;;;;;14.18;2.45;;;;;;;6.19;61.57;101986.00;5028706;28;20052;-69
2024/02/03 04:28:56;;;;;;;19.67;2.58;;;;;;;6.21;61.02;101971.28;5031328;28;20740;-68
2024/02/03 04:31:25;;;;;;;12.55;1.10;;;;;;;6.40;60.59;101977.31;4994681;28;20312;-69
2024/02/03 04:33:52;;;;;;;8.93;1.75;;;;;;;6.48;60.82;101970.31;5006212;28;20691;-69
2024/02/03 04:36:18;;;;;;;11.77;2.60;;;;;;;6.60;60.08;101972.84;5006501;28;20500;-68
2024/02/03 04:38:47;;;;;;;12.15;1.25;;;;;;;6.12;61.91;101972.19;5015994;28;20039;-68
2024/02/03 04:41:27;;;;;;;6.38;0.95;;;;;;;6.33;61.09;101963.47;5026028;28;20043;-69
2024/02/03 04:44:00;;;;;;;11.25;1.92;;;;;;;6.12;61.28;101966.13;5072950;28;20035;-69
2024/02/03 04:46:25;;;;;;;7.38;1.65;;;;;;;6.11;61.79;101965.28;5063805;28;20032;-71
2024/02/03 04:48:53;;;;;;;6.63;1.50;;;;;;;5.82;62.85;101962.78;5055765;28;20108;-69
2024/02/03 04:51:19;;;;;;;9.82;1.00;;;;;;;5.90;62.62;101958.41;5066194;28;20145;-68
2024/02/03 04:53:46;;;;;;;8.93;2.22;;;;;;;6.19;61.66;101966.09;5064667;28;20128;-69
2024/02/03 04:56:16;;;;;;;7.68;1.65;;;;;;;6.11;61.82;101954.03;5058642;28;20040;-68
2024/02/03 04:58:42;;;;;;;8.50;0.85;;;;;;;5.88;62.63;101962.72;5066471;28;20591;-69
2024/02/03 05:01:08;;;;;;;11.63;2.47;;;;;;;6.09;62.24;101972.19;5059388;28;20079;-69
2024/02/03 05:03:40;;;;;;;10.30;2.08;;;;;;;6.15;61.61;101960.91;5066022;28;20024;-69
2024/02/03 05:06:06;;;;;;;9.23;1.23;;;;;;;5.91;62.27;101961.88;5033310;28;20495;-70
2024/02/03 05:08:39;;;;;;;6.80;1.48;;;;;;;5.53;63.24;101955.91;5060087;28;20036;-66
2024/02/03 05:11:10;;;;;;;15.73;1.85;;;;;;;5.66;62.94;101962.81;5058721;28;20911;-68
2024/02/03 05:13:35;;;;;;;11.15;1.65;;;;;;;6.04;61.97;101969.63;5063951;28;20042;-68
2024/02/03 05:16:03;;;;;;;9.70;1.73;;;;;;;5.57;63.67;101957.63;5058869;28;20032;-66
2024/02/03 05:18:29;;;;;;;8.75;1.63;;;;;;;5.78;62.84;101969.69;5066529;28;20085;-66
2024/02/03 05:20:58;;;;;;;10.32;2.33;;;;;;;6.04;61.93;101964.44;5058507;28;20463;-65
2024/02/03 05:23:26;;;;;;;13.35;2.08;;;;;;;5.61;63.08;101948.09;5067065;28;20502;-66
2024/02/03 05:25:54;;;;;;;17.10;1.70;;;;;;;5.44;63.68;101954.19;5062610;28;20161;-66
2024/02/03 05:28:19;;;;;;;6.32;1.45;;;;;;;5.55;63.37;101956.78;5066379;28;20032;-68
2024/02/03 05:30:47;;;;;;;5.97;1.88;;;;;;;5.46;63.98;101939.50;5063114;28;20043;-66
2024/02/03 05:33:20;;;;;;;11.27;1.30;;;;;;;5.66;63.19;101936.88;5059294;28;21401;-73
2024/02/03 05:35:45;;;;;;;16.05;2.35;;;;;;;5.49;63.64;101945.56;5056782;28;20121;-72
2024/02/03 05:38:13;;;;;;;15.68;2.25;;;;;;;5.08;65.01;101936.06;5060113;28;20036;-72
2024/02/03 05:40:41;;;;;;;9.00;1.38;;;;;;;5.56;63.90;101940.34;5065893;28;20035;-75
2024/02/03 05:43:08;;;;;;;4.47;1.42;;;;;;;5.46;63.81;101938.66;5061498;28;20910;-75
2024/02/03 05:45:35;;;;;;;12.77;2.20;;;;;;;5.50;63.71;101939.47;5049160;28;20077;-74
2024/02/03 05:48:01;;;;;;;8.20;1.65;;;;;;;5.57;63.35;101936.00;5057843;28;20040;-75
2024/02/03 05:50:27;;;;;;;10.00;2.13;;;;;;;5.29;63.87;101930.88;5065341;28;20035;-75
2024/02/03 05:52:58;;;;;;;13.77;3.25;;;;;;;5.30;64.03;101937.81;5061320;28;20032;-75
2024/02/03 05:55:28;;;;;;;12.65;1.45;;;;;;;5.18;64.33;101932.63;5057041;28;20143;-75
2024/02/03 05:57:58;;;;;;;16.13;2.78;;;;;;;5.12;64.68;101928.28;5082035;28;20501;-66
2024/02/03 06:00:23;;;;;;;11.48;1.42;;;;;;;5.07;64.44;101929.16;5064345;28;20102;-69
2024/02/03 06:03:06;;;;;;;7.88;1.73;;;;;;;5.38;63.75;101919.63;5064490;28;20506;-72
2024/02/03 06:05:34;;;;;;;10.20;1.95;;;;;;;5.32;64.02;101925.69;5065458;28;20123;-72
2024/02/03 06:07:59;;;;;;;9.43;1.58;;;;;;;5.53;63.55;101929.97;5059736;28;20042;-72
2024/02/03 06:10:24;;;;;;;12.68;2.17;;;;;;;5.69;62.63;101929.94;5063284;28;20036;-67
2024/02/03 06:12:52;;;;;;;10.73;1.73;;;;;;;5.31;63.85;101917.91;5062596;28;21010;-70
2024/02/03 06:15:18;;;;;;;8.23;2.28;;;;;;;5.43;63.88;101918.75;5042579;28;20142;-69
2024/02/03 06:17:46;;;;;;;12.32;2.05;;;;;;;5.60;62.90;101921.31;5060035;28;20055;-69
2024/02/03 06:20:11;;;;;;;15.20;1.75;;;;;;;5.25;64.28;101921.38;5056062;28;20043;-69
2024/02/03 06:22:40;;;;;;;19.70;2.38;;;;;;;5.19;64.73;101927.44;5064998;28;20119;-69
2024/02/03 06:25:05;;;;;;;10.38;1.90;;;;;;;5.55;63.73;101920.47;5051729;28;20123;-68
2024/02/03 06:27:31;;;;;;;7.28;2.00;;;;;;;5.78;62.80;101922.13;5064323;28;20028;-69
2024/02/03 06:29:56;;;;;;;9.15;1.65;;;;;;;5.53;63.84;101918.75;5060903;28;20048;-69
2024/02/03 06:32:25;;;;;;;11.98;3.13;;;;;;;5.43;64.38;101917.88;5060338;28;20033;-69
2024/02/03 06:34:50;;;;;;;9.93;1.85;;;;;;;5.42;64.24;101905.81;5062535;28;20837;-69
2024/02/03 06:37:18;;;;;;;17.08;2.83;;;;;;;5.81;63.68;101909.16;5057357;28;20024;-72
2024/02/03 06:39:49;;;;;;;8.85;1.92;;;;;;;5.95;62.66;101907.38;5054599;28;20044;-70
2024/02/03 06:42:14;;;;;;;13.05;2.17;;;;;;;5.59;64.24;101919.59;5056396;28;20031;-70
2024/02/03 06:44:40;;;;;;;15.18;3.05;;;;;;;5.54;64.54;101917.88;5053351;28;20152;-72
2024/02/03 06:47:06;;;;;;;17.27;2.75;;;;;;;5.63;64.21;101912.66;5054085;28;20067;-67
2024/02/03 06:49:36;;;;;;;12.57;2.03;;;;;;;6.08;62.87;101921.13;5054045;28;20164;-66
2024/02/03 06:52:01;;;;;;;17.58;1.75;;;;;;;5.75;64.02;101920.41;5064389;28;20055;-69
2024/02/03 06:54:30;;;;;;;8.05;1.73;;;;;;;5.94;63.42;101923.78;5057791;28;20140;-67
2024/02/03 06:56:58;;;;;;;10.25;2.72;;;;;;;5.94;63.42;101918.59;5065335;28;20179;-73
2024/02/03 06:59:24;;;;;;;10.23;1.70;;;;;;;5.64;63.88;101925.63;5041481;28;20040;-69
2024/02/03 07:01:50;;;;;;;5.25;1.45;;;;;;;6.44;62.05;101907.16;5043804;28;20036;-68
2024/02/03 07:04:18;;;;;;;8.95;1.23;;;;;;;5.95;62.97;101922.94;5059603;28;20107;-70
2024/02/03 07:06:46;;;;;;;14.38;2.90;;;;;;;5.76;63.99;101921.28;5060428;28;20726;-68
2024/02/03 07:09:19;;;;;;;20.60;2.15;;;;;;;5.71;63.93;101923.03;5060413;28;20494;-72
2024/02/03 07:11:47;;;;;;;5.47;2.55;;;;;;;5.81;63.77;101920.38;5068730;28;20109;-73
2024/02/03 07:14:12;;;;;;;12.20;2.20;;;;;;;6.02;62.90;101919.44;5033706;28;20748;-73
2024/02/03 07:16:38;;;;;;;12.45;2.45;;;;;;;5.89;63.28;101933.34;5022456;28;20094;-73
2024/02/03 07:19:04;;;;;;;6.80;2.90;;;;;;;5.90;63.07;101927.28;5060515;28;20046;-71
2024/02/03 07:21:30;;;;;;;12.05;2.40;;;;;;;6.34;61.83;101926.25;5059672;28;20035;-74
2024/02/03 07:23:59;;;;;;;7.72;2.00;;;;;;;6.22;61.75;101929.75;5062295;28;20025;-72
2024/02/03 07:26:25;;;;;;;12.20;3.00;;;;;;;5.84;63.51;101933.34;5056060;28;21540;-72
2024/02/03 07:28:56;;;;;;;10.73;2.30;;;;;;;6.07;63.01;101933.25;5069192;28;20397;-66
2024/02/03 07:31:29;;;;;;;12.00;2.83;;;;;;;6.02;62.90;101929.84;5058855;28;20196;-64
2024/02/03 07:33:56;;;;;;;8.98;3.85;;;;;;;5.98;62.87;101933.31;5056758;28;20481;-70
2024/02/03 07:36:24;;;;;;;8.15;2.55;;;;;;;5.98;63.19;101943.69;5059785;28;20066;-67
2024/02/03 07:38:52;;;;;;;10.95;2.72;;;;;;;6.06;62.62;101944.53;5067671;28;20036;-67
2024/02/03 07:41:18;;;;;;;11.70;3.22;;;;;;;5.84;63.61;101948.06;5056706;28;20067;-68
2024/02/03 07:43:44;;;;;;;15.98;3.92;;;;;;;6.00;63.09;101936.75;5065645;28;20056;-67
2024/02/03 07:46:10;;;;;;;6.07;2.75;;;;;;;5.85;63.45;101952.38;5056162;28;20079;-69
2024/02/03 07:48:36;;;;;;;9.82;3.15;;;;;;;6.27;62.06;101947.91;5066659;28;20103;-71
2024/02/03 07:51:02;;;;;;;17.65;3.40;;;;;;;6.26;62.49;101953.94;5065407;28;20036;-70
2024/02/03 07:53:28;;;;;;;14.77;3.50;;;;;;;5.87;63.54;101940.25;5060759;28;20605;-72
2024/02/03 07:55:54;;;;;;;9.73;2.55;;;;;;;5.96;63.15;101954.94;5063746;28;20225;-72
2024/02/03 07:58:19;;;;;;;14.70;2.53;;;;;;;6.16;62.53;101952.28;5061531;28;20561;-71
2024/02/03 08:00:45;;;;;;;9.82;2.95;;;;;;;6.12;62.92;101951.41;5062977;28;20036;-69
2024/02/03 08:03:11;;;;;;;10.07;2.63;;;;;;;5.42;64.83;101958.50;5044828;28;20265;-70
2024/02/03 08:05:38;;;;;;;15.07;3.50;;;;;;;5.93;63.28;101949.78;5012046;28;20128;-70
2024/02/03 08:08:04;;;;;;;5.00;2.47;;;;;;;5.62;64.59;101948.13;5016409;28;20040;-68
2024/02/03 08:10:30;;;;;;;8.73;2.33;;;;;;;5.71;63.89;101948.97;5003776;28;20040;-69
2024/02/03 08:12:59;;;;;;;8.93;2.58;;;;;;;5.79;64.36;101942.00;5013124;28;20059;-67
2024/02/03 08:15:25;;;;;;;10.13;2.63;;;;;;;6.04;62.92;101948.84;5016159;28;20060;-67
2024/02/03 08:17:51;;;;;;;6.68;2.05;;;;;;;5.93;63.29;101949.78;5060038;28;20073;-70
2024/02/03 08:20:17;;;;;;;8.27;2.10;;;;;;;6.15;62.97;101945.34;5075282;28;20043;-72
2024/02/03 08:22:43;;;;;;;15.27;2.53;;;;;;;6.38;61.94;101943.53;5065405;28;20039;-70
2024/02/03 08:25:09;;;;;;;5.50;2.30;;;;;;;6.18;61.73;101945.34;5065123;28;20426;-69
2024/02/03 08:27:34;;;;;;;12.27;2.42;;;;;;;6.36;62.08;101934.88;5057185;28;20031;-72
2024/02/03 08:30:00;;;;;;;14.50;2.88;;;;;;;6.40;61.71;101930.56;5066627;28;20409;-72
2024/02/03 08:32:26;;;;;;;6.43;2.78;;;;;;;6.55;61.61;101946.06;5059362;28;20502;-72
2024/02/03 08:34:51;;;;;;;10.77;2.83;;;;;;;6.20;62.55;101935.81;5044252;28;20142;-72
2024/02/03 08:37:17;;;;;;;8.82;2.10;;;;;;;5.93;63.22;101940.25;5049964;28;20600;-73
2024/02/03 08:39:43;;;;;;;5.10;1.90;;;;;;;6.44;61.93;101940.91;5065753;28;20088;-68
2024/02/03 08:42:08;;;;;;;10.32;2.42;;;;;;;5.89;63.19;101943.72;5048372;28;20040;-67
2024/02/03 08:44:33;;;;;;;8.48;2.10;;;;;;;6.21;62.27;101942.72;5046640;28;21276;-67
2024/02/03 08:46:59;;;;;;;10.73;1.90;;;;;;;6.32;61.94;101943.56;5050035;28;20031;-68
2024/02/03 08:49:27;;;;;;;10.65;2.60;;;;;;;6.20;62.62;101949.66;5056282;28;20044;-68
2024/02/03 08:51:53;;;;;;;8.13;1.58;;;;;;;6.02;63.11;101940.22;5067605;28;20032;-67
2024/02/03 08:54:18;;;;;;;12.15;2.13;;;;;;;6.42;61.53;101952.19;5036083;28;20044;-68
2024/02/03 08:56:44;;;;;;;10.77;2.20;;;;;;;6.54;61.43;101951.25;5051939;28;20056;-68
2024/02/03 08:59:09;;;;;;;9.38;1.70;;;;;;;6.50;61.46;101953.84;5064321;28;20118;-67
2024/02/03 09:01:34;;;;;;;7.63;1.52;;;;;;;6.22;61.76;101952.25;5063033;28;20127;-66
2024/02/03 09:04:00;;;;;;;6.82;1.38;;;;;;;6.65;60.81;101958.09;5068363;28;20055;-67
2024/02/03 09:06:25;;;;;;;7.05;1.73;;;;;;;6.10;62.35;101968.72;5043519;28;21343;-68
2024/02/03 09:08:51;;;;;;;6.97;1.63;;;;;;;6.35;61.77;101966.94;5052063;28;20040;-68
2024/02/03 09:11:16;;;;;;;9.55;1.52;;;;;;;6.23;61.98;101969.53;5064619;28;20040;-67
2024/02/03 09:13:42;;;;;;;11.98;1.55;;;;;;;6.75;60.72;101969.28;5074238;28;20059;-69
2024/02/03 09:16:07;;;;;;;16.70;2.05;;;;;;;6.44;61.62;101977.28;5056235;28;20387;-68
2024/02/03 09:18:33;;;;;;;13.30;1.55;;;;;;;6.90;60.25;101969.19;5043076;28;20043;-66
2024/02/03 09:20:58;;;;;;;9.88;1.30;;;;;;;6.63;60.64;101965.03;5060635;28;20036;-69
2024/02/03 09:23:24;;;;;;;10.77;1.25;;;;;;;6.78;60.33;101974.47;5058195;28;20035;-66
2024/02/03 09:25:49;;;;;;;12.18;2.10;;;;;;;6.38;61.52;101977.31;5062778;28;20036;-68
2024/02/03 09:28:15;;;;;;;8.38;1.92;;;;;;;6.22;61.54;101967.81;5063160;28;20153;-69
2024/02/03 09:30:41;;;;;;;10.48;1.80;;;;;;;6.48;61.22;101984.19;5034998;28;22862;-69
2024/02/03 09:33:07;;;;;;;11.70;1.40;;;;;;;6.03;62.20;101967.88;5050063;28;20036;-67
2024/02/03 09:35:32;;;;;;;14.93;1.38;;;;;;;6.29;62.04;101985.13;5045400;28;20089;-66
2024/02/03 09:37:58;;;;;;;13.57;3.10;;;;;;;6.02;62.12;101984.34;5047908;28;20746;-72
2024/02/03 09:40:23;;;;;;;9.10;1.33;;;;;;;6.09;61.93;101975.66;5035743;28;20044;-71
2024/02/03 09:42:49;;;;;;;16.58;1.85;;;;;;;6.63;60.86;101980.63;5035079;28;20390;-69
2024/02/03 09:45:15;;;;;;;13.10;1.63;;;;;;;6.76;60.37;101984.00;5035263;28;20298;-67
2024/02/03 09:47:42;;;;;;;18.15;2.03;;;;;;;6.49;60.73;101988.50;5013334;28;20039;-68
2024/02/03 09:50:08;;;;;;;7.53;1.20;;;;;;;6.37;61.51;101987.69;5034073;28;20043;-67
2024/02/03 09:52:34;;;;;;;11.10;1.40;;;;;;;6.59;60.94;101989.28;5005454;28;20028;-65
2024/02/03 09:55:00;;;;;;;13.55;2.20;;;;;;;6.76;60.17;101997.00;5025956;28;20739;-67
2024/02/03 09:57:26;;;;;;;8.05;1.25;;;;;;;6.75;60.00;101992.66;5011731;28;20090;-68
2024/02/03 09:59:52;;;;;;;10.02;1.45;;;;;;;6.40;61.08;102000.69;5025623;28;20067;-65
2024/02/03 10:02:19;;;;;;;6.55;1.13;;;;;;;6.98;59.40;101994.28;5009912;28;20384;-66
2024/02/03 10:04:45;;;;;;;13.45;1.60;;;;;;;6.56;60.29;101993.66;4990483;28;20612;-66
2024/02/03 10:07:16;;;;;;;14.27;2.10;;;;;;;6.06;62.26;101996.44;5010458;28;20025;-67
2024/02/03 10:09:42;;;;;;;5.90;1.97;;;;;;;7.03;59.44;101995.09;5000320;28;20097;-69
2024/02/03 10:12:22;;;;;;;12.30;1.67;;;;;;;7.01;59.52;101997.69;5011043;28;20221;-66
2024/02/03 10:15:05;;;;;;;11.07;1.42;;;;;;;6.89;59.28;102006.47;5002537;28;20645;-67
2024/02/03 10:17:34;;;;;;;9.40;2.10;;;;;;;7.09;59.17;102005.47;5035755;28;20127;-67
2024/02/03 10:20:00;;;;;;;13.45;1.45;;;;;;;7.16;58.81;102001.94;5049058;28;20124;-67
2024/02/03 10:22:26;;;;;;;6.72;1.58;;;;;;;6.73;59.75;101997.03;5047796;28;20040;-67
2024/02/03 10:24:52;;;;;;;8.18;1.95;;;;;;;6.38;61.14;102005.88;5033599;28;20980;-69
2024/02/03 10:27:24;;;;;;;9.57;2.33;;;;;;;6.34;61.07;102006.75;5048340;28;20136;-66
2024/02/03 10:29:54;;;;;;;8.32;1.33;;;;;;;6.72;60.29;101999.63;5053123;28;20052;-68
2024/02/03 10:32:20;;;;;;;11.50;2.03;;;;;;;6.75;60.50;102000.47;5077183;28;20070;-69
2024/02/03 10:34:46;;;;;;;9.70;1.45;;;;;;;6.96;60.03;102009.03;5052866;28;21364;-67
2024/02/03 10:37:13;;;;;;;15.38;1.70;;;;;;;6.90;59.94;102007.31;5062737;28;20052;-70
2024/02/03 10:39:41;;;;;;;9.70;1.35;;;;;;;7.08;59.33;102003.72;5056100;28;20689;-68
2024/02/03 10:42:12;;;;;;;20.25;1.90;;;;;;;6.90;59.61;102002.97;5064776;28;20047;-68
2024/02/03 10:44:38;;;;;;;14.98;2.58;;;;;;;6.76;60.04;102009.16;5057263;28;20071;-68
2024/02/03 10:47:05;;;;;;;11.20;2.45;;;;;;;6.68;59.96;102009.16;5066076;28;20064;-71
2024/02/03 10:49:32;;;;;;;13.10;1.98;;;;;;;7.17;59.19;102003.66;5057105;28;20043;-69
2024/02/03 10:52:02;;;;;;;7.93;1.50;;;;;;;7.48;57.99;101999.06;5065378;28;20039;-68
2024/02/03 10:54:29;;;;;;;12.88;1.80;;;;;;;6.78;60.24;102005.66;5060964;28;20035;-68
2024/02/03 10:56:57;;;;;;;9.90;1.92;;;;;;;7.19;59.26;101998.44;5032944;28;20033;-67
2024/02/03 10:59:22;;;;;;;12.20;1.65;;;;;;;6.89;59.93;101996.06;5035217;28;20041;-68
2024/02/03 11:01:48;;;;;;;16.15;1.83;;;;;;;7.17;59.39;101997.59;5037329;28;20029;-68
2024/02/03 11:04:14;;;;;;;13.02;1.35;;;;;;;7.36;58.80;101993.13;5043176;28;20035;-71
2024/02/03 11:06:41;;;;;;;10.75;1.65;;;;;;;7.47;58.23;101993.88;5049280;28;20792;-68
2024/02/03 11:09:15;;;;;;;9.77;1.80;;;;;;;6.82;60.43;102002.19;5064927;28;20032;-69
2024/02/03 11:11:44;;;;;;;16.67;2.55;;;;;;;6.78;59.98;102004.81;5058721;28;20127;-68
2024/02/03 11:14:16;;;;;;;14.73;1.45;;;;;;;7.05;59.62;101998.56;5016137;28;20187;-68
2024/02/03 11:16:42;;;;;;;18.58;3.10;;;;;;;6.76;60.45;101990.97;5006202;28;20152;-68
2024/02/03 11:19:17;;;;;;;10.65;1.70;;;;;;;6.35;61.50;101999.81;5014435;28;20575;-68
2024/02/03 11:21:44;;;;;;;10.73;1.92;;;;;;;6.94;60.36;101992.56;5012913;28;20043;-67
2024/02/03 11:24:10;;;;;;;15.02;1.95;;;;;;;6.60;61.07;101990.19;5017933;28;20028;-68
2024/02/03 11:26:37;;;;;;;11.73;2.13;;;;;;;6.88;60.30;101985.66;5048700;28;20060;-67
2024/02/03 11:29:05;;;;;;;11.55;2.08;;;;;;;6.87;60.02;101982.22;5063217;28;20051;-68
2024/02/03 11:31:31;;;;;;;13.23;1.88;;;;;;;6.54;60.82;101990.22;5062167;28;20044;-68